createdAt,value
2018-12-16T00:00:34.972Z,99593.62
2018-12-16T00:03:02.554Z,99593.73
2018-12-16T00:05:30.136Z,99596.61
2018-12-16T00:07:57.773Z,99594.24
2018-12-16T00:10:25.356Z,99595.23
2018-12-16T00:12:52.938Z,99589.80
2018-12-16T00:15:20.655Z,99576.53
2018-12-16T00:17:48.225Z,99569.27
2018-12-16T00:20:15.808Z,99570.25
2018-12-16T00:22:43.452Z,99579.17
2018-12-16T00:25:11.081Z,99569.42
2018-12-16T00:27:38.653Z,99569.44
2018-12-16T00:30:06.464Z,99588.94
2018-12-16T00:32:34.134Z,99591.23
2018-12-16T00:35:01.718Z,99585.44
2018-12-16T00:37:29.436Z,99587.24
2018-12-16T00:39:57.020Z,99588.59
2018-12-16T00:42:24.609Z,99588.20
2018-12-16T00:44:52.261Z,99591.31
2018-12-16T00:47:19.845Z,99590.41
2018-12-16T00:49:47.410Z,99594.42
2018-12-16T00:52:15.841Z,99586.91
2018-12-16T00:54:43.456Z,99578.45
2018-12-16T00:57:11.032Z,99583.06
2018-12-16T00:59:38.777Z,99569.75
2018-12-16T01:02:06.489Z,99567.36
2018-12-16T01:04:34.088Z,99565.84
2018-12-16T01:07:01.732Z,99573.23
2018-12-16T01:09:29.368Z,99571.66
2018-12-16T01:11:56.965Z,99574.44
2018-12-16T01:14:24.846Z,99580.66
2018-12-16T01:16:52.415Z,99575.15
2018-12-16T01:19:20.017Z,99570.07
2018-12-16T01:21:47.933Z,99573.05
2018-12-16T01:24:15.556Z,99569.84
2018-12-16T01:26:43.124Z,99566.19
2018-12-16T01:29:11.025Z,99573.08
2018-12-16T01:31:38.593Z,99565.17
2018-12-16T01:34:06.186Z,99564.27
2018-12-16T01:36:33.804Z,99561.00
2018-12-16T01:39:01.369Z,99557.76
2018-12-16T01:41:28.941Z,99553.21
2018-12-16T01:43:56.681Z,99547.88
2018-12-16T01:46:24.249Z,99538.90
2018-12-16T01:48:51.833Z,99543.20
2018-12-16T01:51:19.468Z,99549.97
2018-12-16T01:53:47.030Z,99542.58
2018-12-16T01:56:14.593Z,99543.11
2018-12-16T01:58:42.447Z,99545.95
2018-12-16T02:01:10.009Z,99538.12
2018-12-16T02:03:37.574Z,99531.50
2018-12-16T02:06:05.337Z,99538.27
2018-12-16T02:08:32.918Z,99537.81
2018-12-16T02:11:00.493Z,99532.38
2018-12-16T02:13:28.322Z,99525.23
2018-12-16T02:15:58.033Z,99519.49
2018-12-16T02:18:25.606Z,99519.75
2018-12-16T02:20:53.352Z,99519.87
2018-12-16T02:23:20.905Z,99516.38
2018-12-16T02:25:48.480Z,99502.78
2018-12-16T02:28:16.339Z,99505.30
2018-12-16T02:30:43.912Z,99499.98
2018-12-16T02:33:11.489Z,99499.16
2018-12-16T02:35:39.217Z,99502.94
2018-12-16T02:38:06.802Z,99512.08
2018-12-16T02:40:34.372Z,99508.76
2018-12-16T02:43:02.022Z,99511.88
2018-12-16T02:45:29.605Z,99506.56
2018-12-16T02:47:57.227Z,99512.17
2018-12-16T02:50:25.092Z,99519.87
2018-12-16T02:52:52.818Z,99519.27
2018-12-16T02:55:20.421Z,99515.92
2018-12-16T02:57:48.229Z,99510.19
2018-12-16T03:00:15.825Z,99502.91
2018-12-16T03:02:43.397Z,99493.09
2018-12-16T03:05:11.024Z,99494.76
2018-12-16T03:07:38.589Z,99488.94
2018-12-16T03:10:06.250Z,99497.66
2018-12-16T03:12:34.155Z,99504.24
2018-12-16T03:15:01.738Z,99501.50
2018-12-16T03:17:29.329Z,99507.45
2018-12-16T03:19:56.980Z,99507.05
2018-12-16T03:22:24.566Z,99501.16
2018-12-16T03:24:52.143Z,99502.17
2018-12-16T03:27:19.914Z,99510.62
2018-12-16T03:29:47.485Z,99515.59
2018-12-16T03:32:15.127Z,99515.28
2018-12-16T03:34:42.733Z,99515.39
2018-12-16T03:37:10.293Z,99520.33
2018-12-16T03:39:37.870Z,99518.02
2018-12-16T03:42:05.532Z,99518.31
2018-12-16T03:44:33.124Z,99519.62
2018-12-16T03:47:00.692Z,99516.51
2018-12-16T03:49:28.318Z,99521.11
2018-12-16T03:51:55.883Z,99516.83
2018-12-16T03:54:23.453Z,99513.84
2018-12-16T03:56:51.237Z,99515.08
2018-12-16T03:59:18.908Z,99501.92
2018-12-16T04:02:01.311Z,99505.09
2018-12-16T04:04:28.900Z,99504.20
2018-12-16T04:06:56.482Z,99495.16
2018-12-16T04:09:24.208Z,99499.05
2018-12-16T04:11:51.788Z,99493.73
2018-12-16T04:14:19.367Z,99494.91
2018-12-16T04:16:46.977Z,99491.98
2018-12-16T04:19:14.537Z,99487.98
2018-12-16T04:21:42.109Z,99491.30
2018-12-16T04:24:09.863Z,99494.22
2018-12-16T04:26:37.425Z,99485.38
2018-12-16T04:29:05.037Z,99482.80
2018-12-16T04:31:32.846Z,99474.14
2018-12-16T04:34:00.404Z,99480.54
2018-12-16T04:36:27.967Z,99475.13
2018-12-16T04:38:55.587Z,99474.78
2018-12-16T04:41:23.156Z,99473.67
2018-12-16T04:43:50.747Z,99476.41
2018-12-16T04:46:18.611Z,99473.09
2018-12-16T04:48:46.221Z,99473.08
2018-12-16T04:51:13.801Z,99462.09
2018-12-16T04:53:41.696Z,99458.34
2018-12-16T04:56:09.272Z,99450.58
2018-12-16T04:58:36.918Z,99452.55
2018-12-16T05:01:04.841Z,99453.87
2018-12-16T05:03:32.428Z,99442.86
2018-12-16T05:06:00.211Z,99432.64
2018-12-16T05:08:27.972Z,99425.82
2018-12-16T05:10:55.541Z,99422.03
2018-12-16T05:13:23.116Z,99419.14
2018-12-16T05:15:51.165Z,99408.88
2018-12-16T05:18:18.728Z,99406.81
2018-12-16T05:20:46.310Z,99403.58
2018-12-16T05:23:15.066Z,99414.78
2018-12-16T05:25:42.633Z,99413.84
2018-12-16T05:28:10.197Z,99426.56
2018-12-16T05:30:37.962Z,99423.73
2018-12-16T05:33:05.594Z,99414.26
2018-12-16T05:35:33.182Z,99418.50
2018-12-16T05:38:00.869Z,99436.41
2018-12-16T05:40:28.437Z,99443.63
2018-12-16T05:42:56.000Z,99451.58
2018-12-16T05:45:23.832Z,99450.58
2018-12-16T05:47:51.421Z,99445.95
2018-12-16T05:50:19.057Z,99438.70
2018-12-16T05:52:46.804Z,99433.69
2018-12-16T05:55:14.366Z,99434.83
2018-12-16T05:57:41.937Z,99438.18
2018-12-16T06:00:09.790Z,99450.81
2018-12-16T06:02:37.370Z,99441.08
2018-12-16T06:05:05.015Z,99437.95
2018-12-16T06:07:32.885Z,99446.19
2018-12-16T06:10:00.453Z,99443.92
2018-12-16T06:12:28.034Z,99443.62
2018-12-16T06:14:55.684Z,99447.84
2018-12-16T06:17:23.269Z,99456.80
2018-12-16T06:19:50.857Z,99453.22
2018-12-16T06:22:18.505Z,99449.59
2018-12-16T06:24:46.104Z,99459.11
2018-12-16T06:27:13.717Z,99462.88
2018-12-16T06:29:41.501Z,99455.10
2018-12-16T06:32:09.286Z,99461.80
2018-12-16T06:34:36.873Z,99457.77
2018-12-16T06:37:04.517Z,99461.50
2018-12-16T06:39:32.094Z,99463.05
2018-12-16T06:41:59.666Z,99455.10
2018-12-16T06:44:27.455Z,99455.38
2018-12-16T06:46:55.034Z,99447.22
2018-12-16T06:49:22.609Z,99447.70
2018-12-16T06:51:50.440Z,99438.44
2018-12-16T06:54:18.013Z,99442.61
2018-12-16T06:56:45.617Z,99445.27
2018-12-16T06:59:13.245Z,99444.13
2018-12-16T07:01:40.813Z,99448.31
2018-12-16T07:04:08.395Z,99459.25
2018-12-16T07:06:36.105Z,99462.06
2018-12-16T07:09:03.820Z,99471.99
2018-12-16T07:11:31.388Z,99472.58
2018-12-16T07:13:59.988Z,99476.91
2018-12-16T07:16:27.564Z,99477.67
2018-12-16T07:18:55.181Z,99477.31
2018-12-16T07:21:22.964Z,99476.41
2018-12-16T07:23:50.524Z,99469.27
2018-12-16T07:26:18.113Z,99468.95
2018-12-16T07:28:45.800Z,99456.55
2018-12-16T07:31:13.374Z,99456.52
2018-12-16T07:33:40.966Z,99462.25
2018-12-16T07:36:08.817Z,99468.76
2018-12-16T07:38:36.397Z,99488.28
2018-12-16T07:41:04.038Z,99488.58
2018-12-16T07:43:31.917Z,99484.72
2018-12-16T07:45:59.553Z,99476.11
2018-12-16T07:48:27.189Z,99476.87
2018-12-16T07:50:55.084Z,99476.84
2018-12-16T07:53:22.666Z,99474.84
2018-12-16T07:55:50.417Z,99472.52
2018-12-16T07:58:18.259Z,99466.28
2018-12-16T08:00:45.853Z,99461.02
2018-12-16T08:03:13.416Z,99460.61
2018-12-16T08:05:41.352Z,99468.80
2018-12-16T08:08:08.933Z,99474.45
2018-12-16T08:10:36.529Z,99477.69
2018-12-16T08:13:04.169Z,99477.16
2018-12-16T08:15:31.757Z,99465.48
2018-12-16T08:17:59.345Z,99470.98
2018-12-16T08:20:26.948Z,99471.37
2018-12-16T08:22:54.540Z,99467.98
2018-12-16T08:25:22.114Z,99465.48
2018-12-16T08:27:49.737Z,99453.72
2018-12-16T08:30:17.318Z,99465.63
2018-12-16T08:32:44.920Z,99473.95
2018-12-16T08:35:12.679Z,99479.88
2018-12-16T08:37:40.253Z,99477.92
2018-12-16T08:40:07.862Z,99473.98
2018-12-16T08:42:35.468Z,99462.81
2018-12-16T08:45:04.476Z,99462.93
2018-12-16T08:47:33.248Z,99462.54
2018-12-16T08:49:58.709Z,99470.75
2018-12-16T08:52:26.344Z,99454.06
2018-12-16T08:54:53.907Z,99442.52
2018-12-16T08:57:21.556Z,99444.88
2018-12-16T08:59:49.121Z,99456.78
2018-12-16T09:02:16.708Z,99465.41
2018-12-16T09:04:47.446Z,99452.76
2018-12-16T09:07:15.010Z,99452.19
2018-12-16T09:09:42.654Z,99452.03
2018-12-16T09:12:10.532Z,99450.10
2018-12-16T09:14:38.123Z,99434.96
2018-12-16T09:17:05.685Z,99422.25
2018-12-16T09:19:33.514Z,99420.17
2018-12-16T09:22:01.136Z,99430.59
2018-12-16T09:24:28.721Z,99415.06
2018-12-16T09:26:56.809Z,99413.98
2018-12-16T09:29:24.377Z,99412.48
2018-12-16T09:31:51.954Z,99418.64
2018-12-16T09:34:19.583Z,99410.79
2018-12-16T09:36:47.150Z,99413.60
2018-12-16T09:39:15.481Z,99404.22
2018-12-16T09:41:43.316Z,99404.23
2018-12-16T09:44:10.880Z,99405.92
2018-12-16T09:46:38.489Z,99408.58
2018-12-16T09:49:06.144Z,99403.73
2018-12-16T09:51:33.746Z,99400.65
2018-12-16T09:54:01.334Z,99388.61
2018-12-16T09:56:29.153Z,99384.34
2018-12-16T09:58:56.737Z,99381.97
2018-12-16T10:01:24.324Z,99384.61
2018-12-16T10:03:52.141Z,99381.93
2018-12-16T10:06:19.737Z,99390.04
2018-12-16T10:08:47.326Z,99388.48
2018-12-16T10:11:15.220Z,99383.18
2018-12-16T10:13:42.798Z,99376.36
2018-12-16T10:16:10.382Z,99366.92
2018-12-16T10:18:38.082Z,99356.14
2018-12-16T10:21:05.665Z,99344.23
2018-12-16T10:23:33.253Z,99343.19
2018-12-16T10:26:00.897Z,99335.18
2018-12-16T10:28:28.469Z,99330.36
2018-12-16T10:30:56.054Z,99342.77
2018-12-16T10:33:23.843Z,99333.01
2018-12-16T10:35:51.416Z,99330.80
2018-12-16T10:38:18.990Z,99330.22
2018-12-16T10:40:46.678Z,99313.93
2018-12-16T10:43:14.262Z,99312.94
2018-12-16T10:45:41.846Z,99311.44
2018-12-16T10:48:09.510Z,99308.00
2018-12-16T10:50:37.479Z,99317.86
2018-12-16T10:53:05.056Z,99322.58
2018-12-16T10:55:33.006Z,99328.54
2018-12-16T10:58:00.585Z,99326.06
2018-12-16T11:03:22.385Z,99304.34
2018-12-16T11:05:50.145Z,99311.27
2018-12-16T11:08:17.713Z,99320.50
2018-12-16T11:10:45.394Z,99313.92
2018-12-16T11:13:13.085Z,99307.22
2018-12-16T11:15:40.658Z,99303.11
2018-12-16T11:18:08.265Z,99307.23
2018-12-16T11:20:36.119Z,99309.94
2018-12-16T11:23:03.744Z,99302.09
2018-12-16T11:25:31.325Z,99303.60
2018-12-16T11:27:59.098Z,99308.00
2018-12-16T11:30:26.701Z,99310.38
2018-12-16T11:32:54.326Z,99305.30
2018-12-16T11:35:22.280Z,99310.77
2018-12-16T11:37:49.858Z,99310.09
2018-12-16T11:40:17.434Z,99309.83
2018-12-16T11:42:45.173Z,99301.40
2018-12-16T11:45:12.826Z,99301.98
2018-12-16T11:47:40.397Z,99307.03
2018-12-16T11:50:08.126Z,99311.59
2018-12-16T11:52:35.727Z,99310.64
2018-12-16T11:55:04.221Z,99317.02
2018-12-16T11:57:32.101Z,99312.47
2018-12-16T11:59:59.680Z,99322.28
2018-12-16T12:02:32.752Z,99310.14
2018-12-16T12:04:55.249Z,99313.69
2018-12-16T12:07:22.810Z,99314.92
2018-12-16T12:09:50.388Z,99318.73
2018-12-16T12:12:18.129Z,99321.59
2018-12-16T12:14:45.710Z,99322.83
2018-12-16T12:17:13.294Z,99315.36
2018-12-16T12:19:41.221Z,99313.02
2018-12-16T12:22:08.857Z,99317.91
2018-12-16T12:24:36.441Z,99320.97
2018-12-16T12:27:04.112Z,99328.64
2018-12-16T12:29:31.675Z,99323.75
2018-12-16T12:31:59.301Z,99326.12
2018-12-16T12:34:27.553Z,99324.73
2018-12-16T12:36:55.153Z,99327.84
2018-12-16T12:39:22.753Z,99323.19
2018-12-16T12:41:50.514Z,99329.58
2018-12-16T12:44:18.153Z,99330.88
2018-12-16T12:46:46.981Z,99339.66
2018-12-16T12:49:14.631Z,99339.05
2018-12-16T12:51:42.206Z,99340.62
2018-12-16T12:54:09.789Z,99346.89
2018-12-16T12:56:37.609Z,99354.83
2018-12-16T12:59:05.173Z,99353.27
2018-12-16T13:01:32.760Z,99355.19
2018-12-16T13:04:00.405Z,99362.42
2018-12-16T13:06:27.982Z,99361.51
2018-12-16T13:08:55.566Z,99375.75
2018-12-16T13:11:23.202Z,99370.80
2018-12-16T13:13:50.811Z,99366.44
2018-12-16T13:16:18.421Z,99364.77
2018-12-16T13:18:46.229Z,99367.27
2018-12-16T13:21:14.013Z,99372.42
2018-12-16T13:23:41.602Z,99366.92
2018-12-16T13:26:09.301Z,99371.53
2018-12-16T13:28:36.983Z,99374.66
2018-12-16T13:31:05.528Z,99373.48
2018-12-16T13:33:33.657Z,99388.73
2018-12-16T13:36:01.314Z,99392.13
2018-12-16T13:38:28.910Z,99386.10
2018-12-16T13:40:56.761Z,99386.41
2018-12-16T13:43:25.344Z,99388.81
2018-12-16T13:45:52.948Z,99391.30
2018-12-16T13:48:20.882Z,99393.41
2018-12-16T13:50:48.437Z,99401.76
2018-12-16T13:53:16.927Z,99397.88
2018-12-16T13:55:44.614Z,99399.19
2018-12-16T13:58:12.204Z,99411.12
2018-12-16T14:00:39.835Z,99409.59
2018-12-16T14:03:07.469Z,99415.67
2018-12-16T14:05:35.603Z,99413.11
2018-12-16T14:08:03.199Z,99413.88
2018-12-16T14:10:31.169Z,99414.50
2018-12-16T14:12:58.749Z,99411.55
2018-12-16T14:15:26.331Z,99416.32
2018-12-16T14:17:54.875Z,99419.16
2018-12-16T14:20:22.440Z,99426.62
2018-12-16T14:22:49.999Z,99415.91
2018-12-16T14:25:17.804Z,99431.02
2018-12-16T14:27:45.365Z,99423.78
2018-12-16T14:30:12.992Z,99429.33
2018-12-16T14:32:40.776Z,99430.06
2018-12-16T14:35:08.473Z,99437.58
2018-12-16T14:37:36.037Z,99439.23
2018-12-16T14:40:03.758Z,99438.44
2018-12-16T14:42:31.320Z,99449.94
2018-12-16T14:44:58.872Z,99442.68
2018-12-16T14:47:26.777Z,99456.09
2018-12-16T14:49:54.341Z,99455.84
2018-12-16T14:52:21.913Z,99464.06
2018-12-16T14:54:49.546Z,99474.39
2018-12-16T14:57:17.153Z,99478.27
2018-12-16T14:59:44.731Z,99470.50
2018-12-16T15:02:12.577Z,99481.70
2018-12-16T15:04:40.165Z,99478.56
2018-12-16T15:07:07.792Z,99483.59
2018-12-16T15:09:35.557Z,99488.49
2018-12-16T15:12:03.133Z,99494.58
2018-12-16T16:09:19.343Z,99553.92
2018-12-16T16:11:46.928Z,99558.16
2018-12-16T16:14:14.568Z,99562.18
2018-12-16T16:16:42.335Z,99573.33
2018-12-16T16:19:09.913Z,99589.55
2018-12-16T16:21:37.503Z,99580.40
2018-12-16T16:24:06.294Z,99577.90
2018-12-16T16:26:33.877Z,99586.60
2018-12-16T16:29:01.471Z,99581.30
2018-12-16T16:31:29.116Z,99593.29
2018-12-16T16:34:00.194Z,99593.40
2018-12-16T16:36:27.753Z,99589.89
2018-12-16T16:38:55.493Z,99579.78
2018-12-16T16:41:23.063Z,99584.22
2018-12-16T16:43:57.426Z,99596.37
2018-12-16T16:46:25.126Z,99611.09
2018-12-16T16:48:52.720Z,99616.47
2018-12-16T16:51:20.746Z,99624.11
2018-12-16T16:57:05.894Z,99631.10
2018-12-16T16:59:33.483Z,99633.97
2018-12-16T17:02:01.086Z,99621.42
2018-12-16T17:04:28.725Z,99615.61
2018-12-16T17:06:56.341Z,99621.42
2018-12-16T17:09:23.914Z,99632.50
2018-12-16T17:11:51.640Z,99633.19
2018-12-16T17:14:19.239Z,99634.98
2018-12-16T17:16:46.809Z,99646.41
2018-12-16T17:19:14.498Z,99643.44
2018-12-16T17:21:45.131Z,99647.62
2018-12-16T17:24:12.720Z,99656.95
2018-12-16T17:26:40.450Z,99647.84
2018-12-16T17:29:08.032Z,99651.56
2018-12-16T17:31:35.592Z,99654.81
2018-12-16T17:34:03.840Z,99661.44
2018-12-16T17:36:31.426Z,99673.48
2018-12-16T17:38:59.001Z,99676.15
2018-12-16T17:41:26.925Z,99680.92
2018-12-16T17:43:54.533Z,99676.75
2018-12-16T17:46:22.131Z,99677.52
2018-12-16T17:48:49.772Z,99670.72
2018-12-16T17:51:17.364Z,99677.12
2018-12-16T17:53:44.943Z,99666.02
2018-12-16T17:56:12.723Z,99663.94
2018-12-16T17:58:40.381Z,99659.89
2018-12-16T18:01:07.966Z,99659.78
2018-12-16T18:03:35.830Z,99654.53
2018-12-16T18:06:04.489Z,99658.13
2018-12-16T18:08:31.045Z,99667.75
2018-12-16T18:10:58.826Z,99671.95
2018-12-16T18:13:26.403Z,99677.39
2018-12-16T18:15:53.993Z,99677.90
2018-12-16T18:18:21.617Z,99669.44
2018-12-16T18:20:49.616Z,99692.90
2018-12-16T18:23:17.214Z,99685.74
2018-12-16T18:25:44.925Z,99692.03
2018-12-16T18:28:12.501Z,99704.63
2018-12-16T18:30:40.095Z,99697.70
2018-12-16T18:33:07.834Z,99701.44
2018-12-16T18:35:35.426Z,99695.87
2018-12-16T18:38:03.096Z,99707.19
2018-12-16T18:40:30.945Z,99708.88
2018-12-16T18:42:58.538Z,99709.73
2018-12-16T18:45:26.153Z,99713.31
2018-12-16T18:47:53.992Z,99718.81
2018-12-16T18:50:21.625Z,99726.20
2018-12-16T18:52:49.225Z,99737.47
2018-12-16T18:55:21.147Z,99736.48
2018-12-16T18:57:48.741Z,99746.50
2018-12-16T19:00:16.415Z,99745.75
2018-12-16T19:02:44.163Z,99739.77
2018-12-16T19:05:11.819Z,99739.64
2018-12-16T19:07:39.424Z,99745.97
2018-12-16T19:10:07.327Z,99749.95
2018-12-16T19:12:34.923Z,99752.54
2018-12-16T19:15:02.589Z,99760.69
2018-12-16T19:17:30.460Z,99752.65
2018-12-16T19:19:58.045Z,99756.98
2018-12-16T19:22:25.633Z,99752.57
2018-12-16T19:24:54.166Z,99759.46
2018-12-16T19:27:21.773Z,99769.50
2018-12-16T19:29:49.372Z,99771.02
2018-12-16T19:32:17.117Z,99770.26
2018-12-16T19:34:44.701Z,99769.39
2018-12-16T19:37:12.279Z,99780.94
2018-12-16T19:39:40.023Z,99779.47
2018-12-16T19:42:07.598Z,99777.89
2018-12-16T19:44:35.179Z,99786.14
2018-12-16T19:47:02.979Z,99782.48
2018-12-16T19:49:30.581Z,99793.52
2018-12-16T19:51:58.169Z,99786.92
2018-12-16T19:54:26.510Z,99793.48
2018-12-16T19:56:55.194Z,99791.38
2018-12-16T19:59:22.821Z,99798.86
2018-12-16T20:01:50.592Z,99799.81
2018-12-16T20:04:18.241Z,99799.61
2018-12-16T20:06:45.917Z,99795.20
2018-12-16T20:09:13.785Z,99795.19
2018-12-16T20:11:42.496Z,99799.74
2018-12-16T20:14:10.079Z,99803.44
2018-12-16T20:16:37.880Z,99809.08
2018-12-16T20:19:05.461Z,99808.91
2018-12-16T20:21:33.137Z,99804.98
2018-12-16T20:24:01.010Z,99805.97
2018-12-16T20:26:28.572Z,99803.91
2018-12-16T20:28:56.170Z,99811.01
2018-12-16T20:31:23.905Z,99804.38
2018-12-16T20:33:51.497Z,99809.41
2018-12-16T20:36:19.095Z,99804.91
2018-12-16T20:38:46.970Z,99808.05
2018-12-16T20:41:14.550Z,99815.49
2018-12-16T20:43:42.134Z,99812.36
2018-12-16T20:46:09.867Z,99817.92
2018-12-16T20:48:37.497Z,99827.34
2018-12-16T20:51:05.074Z,99827.55
2018-12-16T20:53:32.895Z,99832.79
2018-12-16T20:56:00.479Z,99823.39
2018-12-16T20:58:28.069Z,99831.09
2018-12-16T21:00:55.836Z,99832.22
2018-12-16T21:03:23.468Z,99836.36
2018-12-16T21:05:51.055Z,99833.88
2018-12-16T21:08:18.709Z,99833.73
2018-12-16T21:10:46.311Z,99832.18
2018-12-16T21:13:19.680Z,99821.27
2018-12-16T21:15:52.677Z,99817.22
2018-12-16T21:18:21.258Z,99811.17
2018-12-16T21:20:48.888Z,99829.03
2018-12-16T21:23:16.460Z,99823.06
2018-12-16T21:25:44.110Z,99822.71
2018-12-16T21:28:11.698Z,99822.19
2018-12-16T21:30:39.305Z,99828.51
2018-12-16T21:33:07.306Z,99830.91
2018-12-16T21:35:34.902Z,99822.58
2018-12-16T21:38:02.522Z,99822.16
2018-12-16T21:40:30.411Z,99824.59
2018-12-16T21:42:57.998Z,99832.20
2018-12-16T21:45:25.591Z,99834.48
2018-12-16T21:47:53.337Z,99829.67
2018-12-16T21:50:20.929Z,99827.23
2018-12-16T21:52:48.559Z,99826.16
2018-12-16T21:55:16.301Z,99827.23
2018-12-16T21:57:43.884Z,99821.88
2018-12-16T22:00:11.603Z,99818.41
2018-12-16T22:02:39.339Z,99821.77
2018-12-16T22:05:07.017Z,99821.57
2018-12-16T22:07:34.592Z,99821.28
2018-12-16T22:10:02.567Z,99821.47
2018-12-16T22:12:30.133Z,99828.42
2018-12-16T22:14:57.717Z,99823.70
2018-12-16T22:17:25.366Z,99832.09
2018-12-16T22:19:52.932Z,99827.54
2018-12-16T22:22:20.500Z,99821.98
2018-12-16T22:24:48.137Z,99822.58
2018-12-16T22:27:15.719Z,99822.09
2018-12-16T22:29:43.285Z,99822.28
2018-12-16T22:32:10.981Z,99814.05
2018-12-16T22:34:49.795Z,99815.59
2018-12-16T22:37:17.499Z,99826.75
2018-12-16T22:39:45.096Z,99819.70
2018-12-16T22:42:12.697Z,99820.05
2018-12-16T22:44:40.518Z,99812.81
2018-12-16T22:47:08.101Z,99804.97
2018-12-16T22:49:35.678Z,99797.28
2018-12-16T22:52:03.646Z,99794.95
2018-12-16T22:54:31.204Z,99796.05
2018-12-16T22:56:58.771Z,99800.66
2018-12-16T22:59:26.627Z,99798.61
2018-12-16T23:01:54.283Z,99798.27
2018-12-16T23:04:21.916Z,99799.80
2018-12-16T23:06:49.669Z,99803.05
2018-12-16T23:09:17.255Z,99808.25
2018-12-16T23:11:44.877Z,99805.72
2018-12-16T23:14:12.583Z,99804.08
2018-12-16T23:16:40.168Z,99807.00
2018-12-16T23:19:07.741Z,99808.49
2018-12-16T23:21:35.475Z,99810.22
2018-12-16T23:24:03.049Z,99815.42
2018-12-16T23:26:30.635Z,99810.36
2018-12-16T23:28:58.370Z,99807.25
2018-12-16T23:31:25.957Z,99810.37
2018-12-16T23:33:53.526Z,99808.73
2018-12-16T23:36:21.231Z,99813.44
2018-12-16T23:38:48.802Z,99817.96
2018-12-16T23:41:16.376Z,99823.91
2018-12-16T23:43:44.102Z,99823.61
2018-12-16T23:46:11.692Z,99828.56
2018-12-16T23:48:39.277Z,99823.74
2018-12-16T23:51:07.033Z,99829.34
2018-12-16T23:53:34.606Z,99820.39
2018-12-16T23:56:02.180Z,99821.48
